sensor_id;sensor_type;location;lat;lon;timestamp;pressure;altitude;pressure_sealevel;temperature;humidity
23417;BME280;11881;42.432;25.632;2022-07-18T00:00:02;99635.81;;;23.44;33.50
23417;BME280;11881;42.432;25.632;2022-07-18T00:02:28;99643.31;;;23.42;32.86
23417;BME280;11881;42.432;25.632;2022-07-18T00:04:53;99644.63;;;23.33;32.65
23417;BME280;11881;42.432;25.632;2022-07-18T00:07:19;99649.84;;;23.28;32.93
23417;BME280;11881;42.432;25.632;2022-07-18T00:09:44;99647.59;;;23.05;33.00
23417;BME280;11881;42.432;25.632;2022-07-18T00:12:10;99643.22;;;23.04;32.99
23417;BME280;11881;42.432;25.632;2022-07-18T00:14:37;99638.59;;;23.04;32.56
23417;BME280;11881;42.432;25.632;2022-07-18T00:17:04;99645.94;;;22.97;32.81
23417;BME280;11881;42.432;25.632;2022-07-18T00:19:29;99648.44;;;22.92;33.04
23417;BME280;11881;42.432;25.632;2022-07-18T00:21:55;99649.06;;;23.01;32.72
23417;BME280;11881;42.432;25.632;2022-07-18T00:24:21;99640.28;;;22.92;32.77
23417;BME280;11881;42.432;25.632;2022-07-18T00:26:46;99647.16;;;22.75;32.77
23417;BME280;11881;42.432;25.632;2022-07-18T00:29:12;99643.81;;;22.79;32.45
23417;BME280;11881;42.432;25.632;2022-07-18T00:31:38;99645.94;;;22.97;32.80
23417;BME280;11881;42.432;25.632;2022-07-18T00:34:03;99653.84;;;22.72;34.06
23417;BME280;11881;42.432;25.632;2022-07-18T00:36:29;99652.78;;;22.60;34.50
23417;BME280;11881;42.432;25.632;2022-07-18T00:38:54;99652.16;;;22.51;35.32
23417;BME280;11881;42.432;25.632;2022-07-18T00:41:20;99655.06;;;22.43;35.59
23417;BME280;11881;42.432;25.632;2022-07-18T00:43:45;99645.91;;;22.44;35.11
23417;BME280;11881;42.432;25.632;2022-07-18T00:46:11;99650.44;;;22.37;35.11
23417;BME280;11881;42.432;25.632;2022-07-18T00:48:38;99655.84;;;22.17;36.17
23417;BME280;11881;42.432;25.632;2022-07-18T00:51:04;99653.59;;;22.34;35.06
23417;BME280;11881;42.432;25.632;2022-07-18T00:53:29;99658.00;;;22.55;34.12
23417;BME280;11881;42.432;25.632;2022-07-18T00:55:55;99658.00;;;22.48;34.15
23417;BME280;11881;42.432;25.632;2022-07-18T00:58:20;99657.78;;;22.43;33.81
23417;BME280;11881;42.432;25.632;2022-07-18T01:00:46;99665.53;;;22.46;34.03
23417;BME280;11881;42.432;25.632;2022-07-18T01:03:34;99661.72;;;22.27;34.22
23417;BME280;11881;42.432;25.632;2022-07-18T01:06:00;99650.66;;;22.22;33.99
23417;BME280;11881;42.432;25.632;2022-07-18T01:08:25;99655.84;;;22.17;35.08
23417;BME280;11881;42.432;25.632;2022-07-18T01:10:51;99661.06;;;22.19;34.57
23417;BME280;11881;42.432;25.632;2022-07-18T01:13:19;99662.09;;;22.11;34.42
23417;BME280;11881;42.432;25.632;2022-07-18T01:15:45;99654.09;;;22.03;34.35
23417;BME280;11881;42.432;25.632;2022-07-18T01:18:11;99661.38;;;21.89;34.59
23417;BME280;11881;42.432;25.632;2022-07-18T01:20:36;99653.00;;;21.91;34.70
23417;BME280;11881;42.432;25.632;2022-07-18T01:23:02;99656.31;;;21.79;35.22
23417;BME280;11881;42.432;25.632;2022-07-18T01:25:27;99654.03;;;21.83;35.14
23417;BME280;11881;42.432;25.632;2022-07-18T01:27:54;99654.25;;;21.82;35.09
23417;BME280;11881;42.432;25.632;2022-07-18T01:30:20;99643.25;;;22.03;34.46
23417;BME280;11881;42.432;25.632;2022-07-18T01:32:46;99651.59;;;22.08;34.46
23417;BME280;11881;42.432;25.632;2022-07-18T01:35:11;99656.91;;;22.16;34.21
23417;BME280;11881;42.432;25.632;2022-07-18T01:37:37;99648.22;;;21.86;35.10
23417;BME280;11881;42.432;25.632;2022-07-18T01:40:10;99650.94;;;21.86;36.49
23417;BME280;11881;42.432;25.632;2022-07-18T01:42:35;99652.75;;;21.79;35.79
23417;BME280;11881;42.432;25.632;2022-07-18T01:45:01;99658.97;;;21.66;35.74
23417;BME280;11881;42.432;25.632;2022-07-18T01:47:27;99653.47;;;21.46;36.64
23417;BME280;11881;42.432;25.632;2022-07-18T01:49:52;99650.66;;;21.33;36.92
23417;BME280;11881;42.432;25.632;2022-07-18T01:52:17;99652.16;;;21.42;36.96
23417;BME280;11881;42.432;25.632;2022-07-18T01:54:43;99657.41;;;21.50;36.15
23417;BME280;11881;42.432;25.632;2022-07-18T01:57:08;99669.03;;;21.79;35.75
23417;BME280;11881;42.432;25.632;2022-07-18T01:59:34;99668.66;;;21.89;34.90
23417;BME280;11881;42.432;25.632;2022-07-18T02:02:00;99666.75;;;21.83;34.96
23417;BME280;11881;42.432;25.632;2022-07-18T02:04:27;99669.88;;;21.79;35.22
23417;BME280;11881;42.432;25.632;2022-07-18T02:07:11;99677.63;;;21.83;35.44
23417;BME280;11881;42.432;25.632;2022-07-18T02:09:36;99670.06;;;21.71;36.25
23417;BME280;11881;42.432;25.632;2022-07-18T02:12:02;99677.66;;;21.48;36.90
23417;BME280;11881;42.432;25.632;2022-07-18T02:14:28;99684.75;;;21.49;36.83
23417;BME280;11881;42.432;25.632;2022-07-18T02:16:54;99675.50;;;21.37;37.06
23417;BME280;11881;42.432;25.632;2022-07-18T02:19:19;99679.22;;;21.29;37.51
23417;BME280;11881;42.432;25.632;2022-07-18T02:21:45;99677.25;;;21.23;37.74
23417;BME280;11881;42.432;25.632;2022-07-18T02:24:10;99683.38;;;21.32;37.41
23417;BME280;11881;42.432;25.632;2022-07-18T02:26:35;99682.97;;;21.63;35.74
23417;BME280;11881;42.432;25.632;2022-07-18T02:29:01;99686.66;;;21.55;36.50
23417;BME280;11881;42.432;25.632;2022-07-18T02:31:26;99682.63;;;21.44;36.59
23417;BME280;11881;42.432;25.632;2022-07-18T02:33:52;99680.53;;;21.40;37.05
23417;BME280;11881;42.432;25.632;2022-07-18T02:36:17;99678.00;;;21.38;36.94
23417;BME280;11881;42.432;25.632;2022-07-18T02:38:43;99691.38;;;21.40;37.08
23417;BME280;11881;42.432;25.632;2022-07-18T02:41:09;99693.47;;;21.44;36.88
23417;BME280;11881;42.432;25.632;2022-07-18T02:43:34;99690.47;;;21.33;37.21
23417;BME280;11881;42.432;25.632;2022-07-18T02:45:59;99696.78;;;21.40;36.86
23417;BME280;11881;42.432;25.632;2022-07-18T02:48:25;99693.38;;;21.31;37.46
23417;BME280;11881;42.432;25.632;2022-07-18T02:50:50;99694.00;;;21.33;37.37
23417;BME280;11881;42.432;25.632;2022-07-18T02:53:16;99700.72;;;21.37;36.55
23417;BME280;11881;42.432;25.632;2022-07-18T02:55:44;99691.50;;;21.32;36.67
23417;BME280;11881;42.432;25.632;2022-07-18T02:58:09;99705.91;;;21.32;36.19
23417;BME280;11881;42.432;25.632;2022-07-18T03:00:35;99699.63;;;21.32;36.89
23417;BME280;11881;42.432;25.632;2022-07-18T03:03:00;99701.59;;;21.16;37.18
23417;BME280;11881;42.432;25.632;2022-07-18T03:05:26;99701.34;;;21.11;37.32
23417;BME280;11881;42.432;25.632;2022-07-18T03:07:51;99702.97;;;21.34;36.70
23417;BME280;11881;42.432;25.632;2022-07-18T03:10:17;99705.50;;;21.35;36.63
23417;BME280;11881;42.432;25.632;2022-07-18T03:12:42;99711.72;;;21.29;37.08
23417;BME280;11881;42.432;25.632;2022-07-18T03:15:08;99715.84;;;21.04;37.67
23417;BME280;11881;42.432;25.632;2022-07-18T03:17:33;99718.78;;;20.81;38.04
23417;BME280;11881;42.432;25.632;2022-07-18T03:19:59;99710.50;;;20.82;37.88
23417;BME280;11881;42.432;25.632;2022-07-18T03:22:24;99719.03;;;20.86;37.32
23417;BME280;11881;42.432;25.632;2022-07-18T03:24:50;99723.50;;;20.93;37.76
23417;BME280;11881;42.432;25.632;2022-07-18T03:27:15;99725.44;;;20.99;38.04
23417;BME280;11881;42.432;25.632;2022-07-18T03:29:41;99719.25;;;21.34;36.54
23417;BME280;11881;42.432;25.632;2022-07-18T03:32:06;99723.19;;;21.31;36.42
23417;BME280;11881;42.432;25.632;2022-07-18T03:34:31;99722.88;;;21.19;37.12
23417;BME280;11881;42.432;25.632;2022-07-18T03:36:57;99723.56;;;21.00;38.40
23417;BME280;11881;42.432;25.632;2022-07-18T03:39:23;99729.19;;;20.77;39.12
23417;BME280;11881;42.432;25.632;2022-07-18T03:41:49;99723.00;;;20.83;39.48
23417;BME280;11881;42.432;25.632;2022-07-18T03:44:16;99728.34;;;20.77;40.02
23417;BME280;11881;42.432;25.632;2022-07-18T03:46:42;99727.69;;;20.75;40.43
23417;BME280;11881;42.432;25.632;2022-07-18T03:49:07;99722.63;;;20.93;40.28
23417;BME280;11881;42.432;25.632;2022-07-18T03:51:32;99724.59;;;20.99;40.58
23417;BME280;11881;42.432;25.632;2022-07-18T03:53:58;99716.94;;;21.09;40.71
23417;BME280;11881;42.432;25.632;2022-07-18T03:56:23;99717.88;;;21.16;40.62
23417;BME280;11881;42.432;25.632;2022-07-18T03:58:49;99719.84;;;21.29;40.75
23417;BME280;11881;42.432;25.632;2022-07-18T04:01:14;99722.50;;;21.50;41.11
23417;BME280;11881;42.432;25.632;2022-07-18T04:03:39;99724.81;;;21.54;40.97
23417;BME280;11881;42.432;25.632;2022-07-18T04:06:05;99722.69;;;21.84;39.35
23417;BME280;11881;42.432;25.632;2022-07-18T04:08:31;99721.19;;;21.74;40.78
23417;BME280;11881;42.432;25.632;2022-07-18T04:10:56;99727.50;;;21.88;40.97
23417;BME280;11881;42.432;25.632;2022-07-18T04:13:22;99727.75;;;21.93;40.73
23417;BME280;11881;42.432;25.632;2022-07-18T04:15:47;99737.59;;;22.01;41.32
23417;BME280;11881;42.432;25.632;2022-07-18T04:18:13;99739.69;;;22.05;39.70
23417;BME280;11881;42.432;25.632;2022-07-18T04:20:38;99731.41;;;22.14;39.66
23417;BME280;11881;42.432;25.632;2022-07-18T04:23:09;99740.63;;;22.26;40.24
23417;BME280;11881;42.432;25.632;2022-07-18T04:25:40;99750.69;;;22.32;40.31
23417;BME280;11881;42.432;25.632;2022-07-18T04:28:07;99750.69;;;22.32;40.31
23417;BME280;11881;42.432;25.632;2022-07-18T04:30:33;99741.31;;;22.35;40.65
23417;BME280;11881;42.432;25.632;2022-07-18T04:33:01;99757.16;;;22.38;41.22
23417;BME280;11881;42.432;25.632;2022-07-18T04:35:28;99752.88;;;22.56;40.28
23417;BME280;11881;42.432;25.632;2022-07-18T04:37:53;99763.19;;;22.94;38.33
23417;BME280;11881;42.432;25.632;2022-07-18T04:40:19;99755.88;;;23.01;39.51
23417;BME280;11881;42.432;25.632;2022-07-18T04:42:44;99760.69;;;23.13;38.08
23417;BME280;11881;42.432;25.632;2022-07-18T04:45:10;99764.44;;;23.25;39.46
23417;BME280;11881;42.432;25.632;2022-07-18T04:47:36;99768.84;;;23.39;37.28
23417;BME280;11881;42.432;25.632;2022-07-18T04:50:03;99767.38;;;23.76;36.51
23417;BME280;11881;42.432;25.632;2022-07-18T04:52:35;99772.44;;;23.66;37.26
23417;BME280;11881;42.432;25.632;2022-07-18T04:55:02;99767.00;;;23.66;37.33
23417;BME280;11881;42.432;25.632;2022-07-18T04:57:27;99770.28;;;23.81;37.34
23417;BME280;11881;42.432;25.632;2022-07-18T04:59:53;99765.66;;;23.88;37.14
23417;BME280;11881;42.432;25.632;2022-07-18T05:02:18;99765.31;;;24.23;35.95
23417;BME280;11881;42.432;25.632;2022-07-18T05:04:43;99772.44;;;24.31;35.90
23417;BME280;11881;42.432;25.632;2022-07-18T05:07:09;99772.25;;;24.26;36.21
23417;BME280;11881;42.432;25.632;2022-07-18T05:09:34;99773.13;;;24.13;35.12
23417;BME280;11881;42.432;25.632;2022-07-18T05:12:00;99773.72;;;24.22;36.36
23417;BME280;11881;42.432;25.632;2022-07-18T05:14:25;99776.06;;;24.18;34.50
23417;BME280;11881;42.432;25.632;2022-07-18T05:16:51;99778.91;;;24.43;35.02
23417;BME280;11881;42.432;25.632;2022-07-18T05:19:16;99772.59;;;24.49;35.09
23417;BME280;11881;42.432;25.632;2022-07-18T05:21:42;99772.41;;;24.44;35.43
23417;BME280;11881;42.432;25.632;2022-07-18T05:24:08;99776.72;;;24.58;36.40
23417;BME280;11881;42.432;25.632;2022-07-18T05:26:33;99779.44;;;24.65;36.38
23417;BME280;11881;42.432;25.632;2022-07-18T05:28:59;99777.44;;;24.79;36.22
23417;BME280;11881;42.432;25.632;2022-07-18T05:31:25;99782.94;;;25.04;35.99
23417;BME280;11881;42.432;25.632;2022-07-18T05:33:51;99784.66;;;24.98;35.91
23417;BME280;11881;42.432;25.632;2022-07-18T05:36:16;99785.72;;;24.97;36.90
23417;BME280;11881;42.432;25.632;2022-07-18T05:38:42;99800.44;;;24.89;36.93
23417;BME280;11881;42.432;25.632;2022-07-18T05:41:07;99810.66;;;24.62;37.83
23417;BME280;11881;42.432;25.632;2022-07-18T05:43:33;99797.69;;;24.96;37.80
23417;BME280;11881;42.432;25.632;2022-07-18T05:45:58;99806.38;;;24.80;39.13
23417;BME280;11881;42.432;25.632;2022-07-18T05:48:24;99796.28;;;24.49;40.30
23417;BME280;11881;42.432;25.632;2022-07-18T05:50:49;99797.34;;;24.79;40.67
23417;BME280;11881;42.432;25.632;2022-07-18T05:53:15;99806.63;;;24.72;42.13
23417;BME280;11881;42.432;25.632;2022-07-18T05:55:40;99806.19;;;24.75;42.51
23417;BME280;11881;42.432;25.632;2022-07-18T05:58:05;99813.84;;;24.91;42.72
23417;BME280;11881;42.432;25.632;2022-07-18T06:00:31;99809.13;;;24.73;41.70
23417;BME280;11881;42.432;25.632;2022-07-18T06:02:57;99812.66;;;24.80;41.09
23417;BME280;11881;42.432;25.632;2022-07-18T06:05:22;99814.59;;;25.11;41.51
23417;BME280;11881;42.432;25.632;2022-07-18T06:07:48;99811.06;;;25.36;39.52
23417;BME280;11881;42.432;25.632;2022-07-18T06:10:14;99817.16;;;25.06;40.10
23417;BME280;11881;42.432;25.632;2022-07-18T06:12:39;99818.75;;;25.45;39.58
23417;BME280;11881;42.432;25.632;2022-07-18T06:15:06;99816.50;;;25.61;39.02
23417;BME280;11881;42.432;25.632;2022-07-18T06:17:32;99823.34;;;25.45;39.61
23417;BME280;11881;42.432;25.632;2022-07-18T06:19:58;99823.56;;;25.68;38.75
23417;BME280;11881;42.432;25.632;2022-07-18T06:22:24;99830.22;;;25.79;38.21
23417;BME280;11881;42.432;25.632;2022-07-18T06:24:50;99825.00;;;25.96;38.19
23417;BME280;11881;42.432;25.632;2022-07-18T06:27:15;99821.94;;;26.11;38.13
23417;BME280;11881;42.432;25.632;2022-07-18T06:29:40;99830.19;;;26.04;39.72
23417;BME280;11881;42.432;25.632;2022-07-18T06:32:06;99826.25;;;26.00;39.39
23417;BME280;11881;42.432;25.632;2022-07-18T06:34:32;99826.63;;;26.04;39.86
23417;BME280;11881;42.432;25.632;2022-07-18T06:36:57;99829.63;;;25.77;41.12
23417;BME280;11881;42.432;25.632;2022-07-18T06:39:23;99830.22;;;25.79;40.30
23417;BME280;11881;42.432;25.632;2022-07-18T06:41:49;99833.34;;;25.58;41.22
23417;BME280;11881;42.432;25.632;2022-07-18T06:44:15;99834.34;;;26.07;40.31
23417;BME280;11881;42.432;25.632;2022-07-18T06:46:41;99831.88;;;26.23;40.76
23417;BME280;11881;42.432;25.632;2022-07-18T06:49:06;99840.38;;;26.15;40.71
23417;BME280;11881;42.432;25.632;2022-07-18T06:51:32;99838.22;;;26.36;40.40
23417;BME280;11881;42.432;25.632;2022-07-18T06:53:58;99840.97;;;26.54;38.63
23417;BME280;11881;42.432;25.632;2022-07-18T06:56:24;99841.28;;;26.27;39.95
23417;BME280;11881;42.432;25.632;2022-07-18T06:58:51;99828.13;;;26.36;37.79
23417;BME280;11881;42.432;25.632;2022-07-18T07:01:18;99838.31;;;26.66;35.75
23417;BME280;11881;42.432;25.632;2022-07-18T07:03:44;99840.13;;;26.72;35.86
23417;BME280;11881;42.432;25.632;2022-07-18T07:06:10;99834.09;;;26.82;35.62
23417;BME280;11881;42.432;25.632;2022-07-18T07:08:35;99828.44;;;26.95;34.38
23417;BME280;11881;42.432;25.632;2022-07-18T07:11:01;99823.47;;;26.92;33.61
23417;BME280;11881;42.432;25.632;2022-07-18T07:13:27;99826.22;;;27.03;33.21
23417;BME280;11881;42.432;25.632;2022-07-18T07:15:53;99823.31;;;27.17;32.77
23417;BME280;11881;42.432;25.632;2022-07-18T07:18:18;99819.25;;;27.19;32.48
23417;BME280;11881;42.432;25.632;2022-07-18T07:20:45;99815.59;;;26.95;32.93
23417;BME280;11881;42.432;25.632;2022-07-18T07:23:11;99818.41;;;27.07;32.94
23417;BME280;11881;42.432;25.632;2022-07-18T07:25:37;99806.34;;;27.26;31.67
23417;BME280;11881;42.432;25.632;2022-07-18T07:28:04;99804.34;;;27.03;32.99
23417;BME280;11881;42.432;25.632;2022-07-18T07:30:30;99803.81;;;27.25;32.47
23417;BME280;11881;42.432;25.632;2022-07-18T07:32:56;99802.84;;;27.73;31.05
23417;BME280;11881;42.432;25.632;2022-07-18T07:35:22;99800.03;;;27.26;31.22
23417;BME280;11881;42.432;25.632;2022-07-18T07:37:50;99798.63;;;27.47;32.36
23417;BME280;11881;42.432;25.632;2022-07-18T07:40:17;99791.53;;;27.69;31.34
23417;BME280;11881;42.432;25.632;2022-07-18T07:42:43;99798.53;;;27.77;31.83
23417;BME280;11881;42.432;25.632;2022-07-18T07:45:09;99793.28;;;27.64;32.59
23417;BME280;11881;42.432;25.632;2022-07-18T07:47:36;99783.78;;;27.54;32.78
23417;BME280;11881;42.432;25.632;2022-07-18T07:50:02;99793.41;;;27.69;33.88
23417;BME280;11881;42.432;25.632;2022-07-18T07:52:28;99797.47;;;28.01;33.63
23417;BME280;11881;42.432;25.632;2022-07-18T07:54:54;99783.75;;;28.13;33.52
23417;BME280;11881;42.432;25.632;2022-07-18T07:57:19;99785.75;;;28.18;33.89
23417;BME280;11881;42.432;25.632;2022-07-18T07:59:45;99788.22;;;28.43;33.50
23417;BME280;11881;42.432;25.632;2022-07-18T08:02:11;99776.38;;;28.02;34.08
23417;BME280;11881;42.432;25.632;2022-07-18T08:04:36;99789.06;;;28.31;35.66
23417;BME280;11881;42.432;25.632;2022-07-18T08:07:02;99782.75;;;28.71;34.63
23417;BME280;11881;42.432;25.632;2022-07-18T08:09:27;99778.34;;;28.70;34.32
23417;BME280;11881;42.432;25.632;2022-07-18T08:11:53;99785.81;;;28.46;34.59
23417;BME280;11881;42.432;25.632;2022-07-18T08:14:18;99779.59;;;28.51;34.33
23417;BME280;11881;42.432;25.632;2022-07-18T08:16:44;99768.34;;;28.64;34.78
23417;BME280;11881;42.432;25.632;2022-07-18T08:19:09;99770.88;;;28.94;33.45
23417;BME280;11881;42.432;25.632;2022-07-18T08:21:35;99773.22;;;28.90;35.30
23417;BME280;11881;42.432;25.632;2022-07-18T08:24:00;99773.53;;;28.77;36.36
23417;BME280;11881;42.432;25.632;2022-07-18T08:26:26;99767.97;;;29.01;36.37
23417;BME280;11881;42.432;25.632;2022-07-18T08:28:51;99774.69;;;29.27;36.81
23417;BME280;11881;42.432;25.632;2022-07-18T08:31:17;99761.72;;;29.39;35.64
23417;BME280;11881;42.432;25.632;2022-07-18T08:33:46;99775.59;;;29.49;36.43
23417;BME280;11881;42.432;25.632;2022-07-18T08:36:13;99769.97;;;29.56;37.70
23417;BME280;11881;42.432;25.632;2022-07-18T08:38:39;99773.69;;;29.16;39.85
23417;BME280;11881;42.432;25.632;2022-07-18T08:41:05;99772.69;;;29.22;40.05
23417;BME280;11881;42.432;25.632;2022-07-18T08:43:31;99775.28;;;29.12;39.43
23417;BME280;11881;42.432;25.632;2022-07-18T08:46:03;99779.88;;;29.23;39.46
23417;BME280;11881;42.432;25.632;2022-07-18T08:48:28;99787.28;;;29.23;40.10
23417;BME280;11881;42.432;25.632;2022-07-18T08:50:54;99772.31;;;28.85;40.24
23417;BME280;11881;42.432;25.632;2022-07-18T08:53:20;99781.41;;;28.74;41.29
23417;BME280;11881;42.432;25.632;2022-07-18T08:55:47;99773.69;;;28.99;41.13
23417;BME280;11881;42.432;25.632;2022-07-18T08:58:13;99783.53;;;29.12;41.43
23417;BME280;11881;42.432;25.632;2022-07-18T09:00:40;99801.09;;;28.30;42.46
23417;BME280;11881;42.432;25.632;2022-07-18T09:03:05;99773.13;;;28.17;42.33
23417;BME280;11881;42.432;25.632;2022-07-18T09:05:32;99781.50;;;27.87;42.45
23417;BME280;11881;42.432;25.632;2022-07-18T09:08:19;99775.03;;;28.16;45.05
23417;BME280;11881;42.432;25.632;2022-07-18T09:10:53;99772.66;;;28.60;45.42
23417;BME280;11881;42.432;25.632;2022-07-18T09:13:22;99777.88;;;28.90;45.34
23417;BME280;11881;42.432;25.632;2022-07-18T09:16:08;99788.31;;;29.05;45.27
23417;BME280;11881;42.432;25.632;2022-07-18T09:18:40;99777.53;;;29.32;45.30
23417;BME280;11881;42.432;25.632;2022-07-18T09:21:20;99768.63;;;29.25;45.02
23417;BME280;11881;42.432;25.632;2022-07-18T09:23:51;99784.94;;;28.86;45.12
23417;BME280;11881;42.432;25.632;2022-07-18T09:29:01;99774.84;;;28.46;45.97
23417;BME280;11881;42.432;25.632;2022-07-18T09:31:26;99774.94;;;28.51;46.66
23417;BME280;11881;42.432;25.632;2022-07-18T09:34:02;99779.66;;;28.39;46.85
23417;BME280;11881;42.432;25.632;2022-07-18T09:36:29;99769.88;;;28.31;47.27
23417;BME280;11881;42.432;25.632;2022-07-18T09:38:55;99779.31;;;28.12;47.74
23417;BME280;11881;42.432;25.632;2022-07-18T09:41:25;99764.72;;;28.06;47.69
23417;BME280;11881;42.432;25.632;2022-07-18T09:43:52;99775.44;;;27.96;47.53
23417;BME280;11881;42.432;25.632;2022-07-18T09:46:17;99775.56;;;27.66;49.56
23417;BME280;11881;42.432;25.632;2022-07-18T09:48:43;99759.47;;;27.58;49.31
23417;BME280;11881;42.432;25.632;2022-07-18T09:51:08;99774.16;;;28.27;47.14
23417;BME280;11881;42.432;25.632;2022-07-18T09:58:28;99744.50;;;29.27;43.95
23417;BME280;11881;42.432;25.632;2022-07-18T10:00:56;99748.91;;;29.45;44.55
23417;BME280;11881;42.432;25.632;2022-07-18T10:03:23;99751.09;;;29.59;44.12
23417;BME280;11881;42.432;25.632;2022-07-18T10:05:49;99745.69;;;29.31;44.78
23417;BME280;11881;42.432;25.632;2022-07-18T10:08:18;99746.16;;;29.61;43.06
23417;BME280;11881;42.432;25.632;2022-07-18T10:10:45;99745.75;;;29.91;41.53
23417;BME280;11881;42.432;25.632;2022-07-18T10:13:12;99729.25;;;30.30;39.74
23417;BME280;11881;42.432;25.632;2022-07-18T10:15:39;99729.50;;;30.51;38.73
23417;BME280;11881;42.432;25.632;2022-07-18T10:18:08;99731.22;;;30.35;38.54
23417;BME280;11881;42.432;25.632;2022-07-18T10:23:15;99718.94;;;29.99;40.33
23417;BME280;11881;42.432;25.632;2022-07-18T10:25:41;99712.16;;;29.84;39.54
23417;BME280;11881;42.432;25.632;2022-07-18T10:28:10;99712.56;;;30.15;38.97
23417;BME280;11881;42.432;25.632;2022-07-18T10:30:42;99720.78;;;29.71;38.76
23417;BME280;11881;42.432;25.632;2022-07-18T10:33:36;99708.31;;;29.85;39.14
23417;BME280;11881;42.432;25.632;2022-07-18T10:38:27;99699.25;;;29.85;39.94
23417;BME280;11881;42.432;25.632;2022-07-18T10:45:56;99708.53;;;29.45;39.67
23417;BME280;11881;42.432;25.632;2022-07-18T10:51:07;99701.19;;;30.28;37.88
23417;BME280;11881;42.432;25.632;2022-07-18T10:53:55;99695.53;;;29.74;38.08
23417;BME280;11881;42.432;25.632;2022-07-18T10:58:55;99709.53;;;29.73;39.53
23417;BME280;11881;42.432;25.632;2022-07-18T11:01:20;99700.97;;;29.69;39.36
23417;BME280;11881;42.432;25.632;2022-07-18T11:03:47;99710.06;;;29.36;39.82
23417;BME280;11881;42.432;25.632;2022-07-18T11:06:14;99707.50;;;29.46;39.57
23417;BME280;11881;42.432;25.632;2022-07-18T11:08:40;99714.94;;;29.51;39.64
23417;BME280;11881;42.432;25.632;2022-07-18T11:11:07;99707.19;;;29.09;40.00
23417;BME280;11881;42.432;25.632;2022-07-18T11:13:36;99700.69;;;29.32;40.26
23417;BME280;11881;42.432;25.632;2022-07-18T11:21:26;99680.22;;;30.22;38.75
23417;BME280;11881;42.432;25.632;2022-07-18T11:24:05;99696.19;;;30.25;37.76
23417;BME280;11881;42.432;25.632;2022-07-18T11:26:42;99679.16;;;30.77;36.48
23417;BME280;11881;42.432;25.632;2022-07-18T11:29:10;99677.63;;;30.64;37.60
23417;BME280;11881;42.432;25.632;2022-07-18T11:32:02;99684.50;;;30.67;38.02
23417;BME280;11881;42.432;25.632;2022-07-18T11:34:28;99679.69;;;31.11;37.58
23417;BME280;11881;42.432;25.632;2022-07-18T11:36:53;99683.59;;;30.83;37.22
23417;BME280;11881;42.432;25.632;2022-07-18T11:39:32;99679.56;;;30.64;37.28
23417;BME280;11881;42.432;25.632;2022-07-18T11:41:58;99664.63;;;30.28;38.68
23417;BME280;11881;42.432;25.632;2022-07-18T11:44:24;99669.59;;;30.58;38.51
23417;BME280;11881;42.432;25.632;2022-07-18T11:47:06;99662.66;;;30.23;38.74
23417;BME280;11881;42.432;25.632;2022-07-18T11:49:35;99661.59;;;30.29;38.30
23417;BME280;11881;42.432;25.632;2022-07-18T11:52:00;99665.47;;;29.84;39.59
23417;BME280;11881;42.432;25.632;2022-07-18T11:54:26;99655.34;;;29.68;38.35
23417;BME280;11881;42.432;25.632;2022-07-18T11:56:54;99657.91;;;29.97;38.72
23417;BME280;11881;42.432;25.632;2022-07-18T11:59:21;99657.94;;;30.45;37.72
23417;BME280;11881;42.432;25.632;2022-07-18T12:01:47;99643.38;;;30.77;36.20
23417;BME280;11881;42.432;25.632;2022-07-18T12:04:21;99642.09;;;30.90;36.16
23417;BME280;11881;42.432;25.632;2022-07-18T12:09:37;99646.59;;;31.01;35.93
23417;BME280;11881;42.432;25.632;2022-07-18T12:12:10;99633.59;;;30.91;36.35
23417;BME280;11881;42.432;25.632;2022-07-18T12:14:36;99642.28;;;30.78;36.18
23417;BME280;11881;42.432;25.632;2022-07-18T12:17:04;99635.34;;;31.08;35.63
23417;BME280;11881;42.432;25.632;2022-07-18T12:19:36;99623.47;;;31.39;34.86
23417;BME280;11881;42.432;25.632;2022-07-18T12:27:15;99626.38;;;31.70;33.50
23417;BME280;11881;42.432;25.632;2022-07-18T12:32:29;99631.53;;;31.09;34.45
23417;BME280;11881;42.432;25.632;2022-07-18T12:35:03;99632.63;;;30.16;36.15
23417;BME280;11881;42.432;25.632;2022-07-18T12:37:29;99635.00;;;30.35;36.30
23417;BME280;11881;42.432;25.632;2022-07-18T12:40:06;99636.31;;;29.83;37.21
23417;BME280;11881;42.432;25.632;2022-07-18T12:42:35;99631.09;;;29.82;36.99
23417;BME280;11881;42.432;25.632;2022-07-18T12:45:02;99616.47;;;29.76;36.95
23417;BME280;11881;42.432;25.632;2022-07-18T12:47:28;99630.63;;;29.90;37.38
23417;BME280;11881;42.432;25.632;2022-07-18T12:49:54;99625.59;;;30.04;37.11
23417;BME280;11881;42.432;25.632;2022-07-18T12:52:19;99634.28;;;29.95;36.58
23417;BME280;11881;42.432;25.632;2022-07-18T12:54:46;99634.75;;;29.65;36.25
23417;BME280;11881;42.432;25.632;2022-07-18T12:57:12;99627.47;;;29.76;36.57
23417;BME280;11881;42.432;25.632;2022-07-18T12:59:37;99616.06;;;29.89;35.85
23417;BME280;11881;42.432;25.632;2022-07-18T13:02:03;99623.81;;;29.92;35.08
23417;BME280;11881;42.432;25.632;2022-07-18T13:04:29;99624.78;;;29.81;35.71
23417;BME280;11881;42.432;25.632;2022-07-18T13:06:54;99625.47;;;29.93;35.00
23417;BME280;11881;42.432;25.632;2022-07-18T13:09:20;99612.03;;;29.97;36.00
23417;BME280;11881;42.432;25.632;2022-07-18T13:11:47;99612.81;;;29.92;35.71
23417;BME280;11881;42.432;25.632;2022-07-18T13:14:13;99615.56;;;29.92;36.38
23417;BME280;11881;42.432;25.632;2022-07-18T13:16:40;99612.84;;;30.19;35.81
23417;BME280;11881;42.432;25.632;2022-07-18T13:19:08;99613.84;;;30.35;34.89
23417;BME280;11881;42.432;25.632;2022-07-18T13:21:34;99616.25;;;30.32;34.81
23417;BME280;11881;42.432;25.632;2022-07-18T13:23:59;99616.75;;;30.02;36.42
23417;BME280;11881;42.432;25.632;2022-07-18T13:26:25;99599.31;;;30.13;37.24